createdAt,value
2022-11-24T00:01:31.467Z,100.00
2022-11-24T00:04:35.564Z,100.00
2022-11-24T00:07:38.777Z,100.00
2022-11-24T00:10:42.400Z,100.00
2022-11-24T00:14:06.313Z,100.00
2022-11-24T00:17:13.303Z,100.00
2022-11-24T00:20:16.967Z,100.00
2022-11-24T00:23:22.432Z,100.00
2022-11-24T00:26:31.428Z,100.00
2022-11-24T00:29:52.681Z,100.00
2022-11-24T00:32:59.343Z,100.00
2022-11-24T00:36:30.177Z,100.00
2022-11-24T00:40:20.430Z,100.00
2022-11-24T00:44:04.263Z,100.00
2022-11-24T00:47:07.483Z,100.00
2022-11-24T00:50:12.773Z,100.00
2022-11-24T00:53:17.314Z,100.00
2022-11-24T00:56:20.364Z,100.00
2022-11-24T00:59:32.964Z,100.00
2022-11-24T01:02:45.629Z,100.00
2022-11-24T01:05:49.890Z,100.00
2022-11-24T01:08:57.679Z,100.00
2022-11-24T01:12:02.077Z,100.00
2022-11-24T01:15:07.168Z,100.00
2022-11-24T01:18:13.592Z,100.00
2022-11-24T01:21:21.220Z,100.00
2022-11-24T01:24:23.674Z,100.00
2022-11-24T01:27:27.029Z,100.00
2022-11-24T01:30:31.255Z,100.00
2022-11-24T01:33:38.273Z,100.00
2022-11-24T01:36:49.079Z,100.00
2022-11-24T01:39:59.263Z,100.00
2022-11-24T01:43:24.427Z,100.00
2022-11-24T01:46:43.575Z,100.00
2022-11-24T01:49:54.299Z,100.00
2022-11-24T01:52:57.712Z,100.00
2022-11-24T01:56:05.614Z,100.00
2022-11-24T01:59:11.244Z,100.00
2022-11-24T02:02:14.593Z,100.00
2022-11-24T02:05:37.600Z,100.00
2022-11-24T02:08:55.926Z,100.00
2022-11-24T02:12:01.405Z,100.00
2022-11-24T02:15:05.344Z,100.00
2022-11-24T02:18:07.958Z,100.00
2022-11-24T02:21:16.979Z,100.00
2022-11-24T02:24:27.750Z,100.00
2022-11-24T02:27:31.393Z,100.00
2022-11-24T02:30:34.969Z,100.00
2022-11-24T02:33:38.752Z,100.00
2022-11-24T02:36:41.157Z,100.00
2022-11-24T02:39:44.525Z,100.00
2022-11-24T02:42:52.094Z,100.00
2022-11-24T02:45:55.042Z,100.00
2022-11-24T02:49:16.393Z,100.00
2022-11-24T02:52:20.022Z,100.00
2022-11-24T02:55:23.914Z,100.00
2022-11-24T02:58:27.351Z,100.00
2022-11-24T03:01:29.798Z,100.00
2022-11-24T03:04:33.123Z,100.00
2022-11-24T03:07:38.306Z,100.00
2022-11-24T03:10:45.294Z,100.00
2022-11-24T03:13:48.825Z,100.00
2022-11-24T03:17:00.121Z,100.00
2022-11-24T03:20:22.818Z,100.00
2022-11-24T03:23:26.603Z,100.00
2022-11-24T03:26:30.904Z,100.00
2022-11-24T03:29:34.994Z,100.00
2022-11-24T03:32:40.288Z,100.00
2022-11-24T03:35:45.713Z,100.00
2022-11-24T03:38:48.440Z,100.00
2022-11-24T03:41:54.314Z,100.00
2022-11-24T03:44:56.780Z,100.00
2022-11-24T03:48:02.593Z,100.00
2022-11-24T03:51:07.951Z,100.00
2022-11-24T03:54:11.083Z,100.00
2022-11-24T03:57:14.034Z,100.00
2022-11-24T04:00:17.797Z,100.00
2022-11-24T04:03:22.141Z,100.00
2022-11-24T04:06:27.218Z,100.00
2022-11-24T04:09:32.823Z,100.00
2022-11-24T04:12:44.448Z,100.00
2022-11-24T04:15:50.656Z,100.00
2022-11-24T04:19:13.920Z,100.00
2022-11-24T04:22:17.256Z,100.00
2022-11-24T04:25:22.259Z,100.00
2022-11-24T04:28:26.691Z,100.00
2022-11-24T04:31:29.436Z,100.00
2022-11-24T04:34:32.873Z,100.00
2022-11-24T04:37:40.924Z,100.00
2022-11-24T04:40:43.651Z,100.00
2022-11-24T04:43:54.415Z,100.00
2022-11-24T04:46:57.922Z,100.00
2022-11-24T04:50:02.671Z,100.00
2022-11-24T04:53:09.387Z,100.00
2022-11-24T04:56:12.110Z,100.00
2022-11-24T04:59:15.747Z,100.00
2022-11-24T05:02:19.115Z,100.00
2022-11-24T05:05:24.472Z,100.00
2022-11-24T05:08:27.117Z,100.00
2022-11-24T05:11:30.232Z,100.00
2022-11-24T05:14:34.890Z,100.00
2022-11-24T05:17:40.040Z,100.00
2022-11-24T05:20:47.213Z,100.00
2022-11-24T05:23:53.131Z,100.00
2022-11-24T05:26:55.863Z,100.00
2022-11-24T05:29:59.274Z,100.00
2022-11-24T05:33:08.400Z,100.00
2022-11-24T05:36:33.197Z,100.00
2022-11-24T05:39:36.998Z,100.00
2022-11-24T05:42:46.688Z,100.00
2022-11-24T05:45:50.380Z,100.00
2022-11-24T05:48:53.603Z,100.00
2022-11-24T05:51:55.982Z,100.00
2022-11-24T05:54:58.850Z,100.00
2022-11-24T05:58:04.126Z,100.00
2022-11-24T06:01:07.444Z,100.00
2022-11-24T06:04:10.378Z,100.00
2022-11-24T06:07:15.584Z,100.00
2022-11-24T06:10:22.411Z,100.00
2022-11-24T06:13:25.213Z,100.00
2022-11-24T06:16:28.217Z,100.00
2022-11-24T06:19:31.444Z,100.00
2022-11-24T06:22:35.034Z,100.00
2022-11-24T06:25:37.419Z,100.00
2022-11-24T06:28:40.699Z,100.00
2022-11-24T06:31:43.464Z,100.00
2022-11-24T06:34:46.414Z,100.00
2022-11-24T06:37:48.758Z,100.00
2022-11-24T06:41:01.134Z,100.00
2022-11-24T06:44:04.973Z,100.00
2022-11-24T06:47:07.673Z,100.00
2022-11-24T06:50:10.637Z,100.00
2022-11-24T06:53:16.276Z,100.00
2022-11-24T06:56:20.379Z,100.00
2022-11-24T06:59:23.815Z,100.00
2022-11-24T07:02:26.928Z,100.00
2022-11-24T07:05:30.138Z,100.00
2022-11-24T07:08:35.015Z,100.00
2022-11-24T07:11:39.162Z,100.00
2022-11-24T07:14:45.011Z,100.00
2022-11-24T07:17:53.167Z,100.00
2022-11-24T07:20:55.909Z,100.00
2022-11-24T07:23:59.195Z,100.00
2022-11-24T07:27:04.945Z,100.00
2022-11-24T07:30:10.066Z,100.00
2022-11-24T07:33:16.214Z,100.00
2022-11-24T07:36:22.451Z,100.00
2022-11-24T07:39:24.964Z,100.00
2022-11-24T07:42:28.059Z,100.00
2022-11-24T07:45:30.471Z,100.00
2022-11-24T07:48:33.989Z,100.00
2022-11-24T07:51:41.258Z,100.00
2022-11-24T07:54:44.395Z,100.00
2022-11-24T07:57:47.355Z,100.00
2022-11-24T08:00:54.838Z,100.00
2022-11-24T08:03:58.047Z,98.65
2022-11-24T08:07:21.633Z,97.42
2022-11-24T08:10:25.073Z,95.27
2022-11-24T08:13:28.114Z,95.72
2022-11-24T08:16:33.313Z,94.03
2022-11-24T08:19:41.052Z,95.85
2022-11-24T08:22:50.649Z,96.61
2022-11-24T08:26:04.294Z,94.47
2022-11-24T08:29:11.562Z,95.74
2022-11-24T08:32:22.226Z,94.79
2022-11-24T08:35:26.119Z,94.41
2022-11-24T08:38:30.584Z,92.87
2022-11-24T08:41:36.178Z,94.26
2022-11-24T08:44:39.080Z,93.77
2022-11-24T08:48:24.060Z,93.77
2022-11-24T08:51:30.347Z,93.04
2022-11-24T08:54:35.839Z,91.99
2022-11-24T08:57:40.456Z,93.25
2022-11-24T09:00:45.330Z,93.49
2022-11-24T09:03:56.274Z,92.54
2022-11-24T09:07:03.656Z,90.51
2022-11-24T09:10:06.892Z,91.83
2022-11-24T09:13:10.617Z,92.49
2022-11-24T09:16:16.887Z,91.04
2022-11-24T09:19:21.975Z,91.46
2022-11-24T09:22:28.602Z,90.85
2022-11-24T09:25:31.839Z,90.72
2022-11-24T09:28:40.014Z,91.10
2022-11-24T09:31:48.222Z,91.43
2022-11-24T09:34:52.047Z,91.64
2022-11-24T09:37:55.175Z,90.69
2022-11-24T09:41:20.952Z,90.36
2022-11-24T09:44:52.785Z,89.46
2022-11-24T09:48:13.993Z,90.26
2022-11-24T09:51:28.836Z,87.32
2022-11-24T09:54:44.611Z,87.62
2022-11-24T09:58:06.561Z,86.83
2022-11-24T10:01:17.266Z,87.39
2022-11-24T10:04:42.324Z,87.30
2022-11-24T10:08:12.228Z,88.50
2022-11-24T10:11:23.089Z,89.90
2022-11-24T10:14:29.047Z,88.88
2022-11-24T10:17:39.921Z,90.32
2022-11-24T10:21:03.470Z,89.94
2022-11-24T10:24:35.509Z,88.66
2022-11-24T10:27:43.463Z,89.70
2022-11-24T10:30:47.522Z,89.40
2022-11-24T10:33:51.444Z,86.73
2022-11-24T10:37:43.231Z,85.91
2022-11-24T10:40:58.224Z,87.86
2022-11-24T10:44:06.988Z,88.01
2022-11-24T10:47:18.575Z,88.91
2022-11-24T10:50:37.440Z,87.48
2022-11-24T10:53:42.568Z,87.41
2022-11-24T10:56:47.772Z,88.48
2022-11-24T10:59:52.452Z,89.35
2022-11-24T11:03:16.638Z,88.80
2022-11-24T11:06:23.423Z,88.02
2022-11-24T11:09:36.361Z,85.59
2022-11-24T11:12:44.689Z,85.87
2022-11-24T11:15:59.378Z,85.95
2022-11-24T11:20:01.771Z,86.30
2022-11-24T11:23:31.028Z,86.92
2022-11-24T11:26:41.691Z,86.52
2022-11-24T11:34:26.736Z,86.26
2022-11-24T11:38:12.792Z,87.05
2022-11-24T11:41:45.064Z,86.46
2022-11-24T11:45:06.855Z,85.54
2022-11-24T11:48:11.911Z,82.02
2022-11-24T11:51:24.553Z,83.54
2022-11-24T11:54:52.311Z,83.66
2022-11-24T11:58:32.710Z,81.92
2022-11-24T12:01:58.466Z,82.55
2022-11-24T12:05:11.234Z,82.24
2022-11-24T12:08:26.046Z,82.37
2022-11-24T12:12:03.889Z,82.06
2022-11-24T12:15:10.785Z,83.18
2022-11-24T12:18:56.970Z,82.75
2022-11-24T12:22:12.116Z,82.79
2022-11-24T12:25:39.507Z,82.99
2022-11-24T12:29:14.620Z,84.43
2022-11-24T12:32:31.269Z,84.37
2022-11-24T12:35:44.870Z,84.53
2022-11-24T12:39:03.875Z,85.01
2022-11-24T12:42:44.900Z,85.07
2022-11-24T12:46:06.440Z,84.35
2022-11-24T12:49:40.257Z,84.83
2022-11-24T12:53:15.035Z,84.62
2022-11-24T12:56:28.242Z,84.81
2022-11-24T12:59:59.749Z,84.32
2022-11-24T13:03:43.839Z,82.63
2022-11-24T13:07:02.354Z,82.29
2022-11-24T13:10:34.903Z,81.42
2022-11-24T13:14:22.109Z,82.32
2022-11-24T13:17:42.095Z,82.83
2022-11-24T13:20:57.496Z,84.14
2022-11-24T13:24:04.428Z,84.88
2022-11-24T13:27:16.336Z,86.17
2022-11-24T13:30:35.076Z,86.49
2022-11-24T13:33:39.545Z,87.15
2022-11-24T13:36:55.513Z,87.63
2022-11-24T13:40:14.118Z,88.28
2022-11-24T13:43:18.870Z,88.67
2022-11-24T13:47:03.302Z,89.38
2022-11-24T13:50:18.959Z,89.64
2022-11-24T13:53:47.951Z,89.64
2022-11-24T13:56:50.452Z,90.22
2022-11-24T14:00:01.519Z,90.58
2022-11-24T14:03:28.916Z,89.36
2022-11-24T14:06:37.639Z,88.91
2022-11-24T14:09:47.620Z,89.61
2022-11-24T14:13:21.487Z,89.20
2022-11-24T14:16:27.203Z,89.28
2022-11-24T14:19:32.243Z,88.93
2022-11-24T14:22:46.183Z,88.75
2022-11-24T14:25:52.730Z,89.25
2022-11-24T14:29:04.585Z,89.24
2022-11-24T14:32:28.705Z,88.98
2022-11-24T14:35:36.826Z,90.51
2022-11-24T14:38:40.095Z,89.31
2022-11-24T14:41:52.458Z,90.47
2022-11-24T14:45:00.793Z,89.96
2022-11-24T14:48:03.202Z,91.11
2022-11-24T14:51:07.582Z,91.11
2022-11-24T14:54:19.966Z,91.75
2022-11-24T14:57:44.890Z,90.84
2022-11-24T15:01:08.862Z,92.13
2022-11-24T15:04:54.771Z,91.94
2022-11-24T15:08:03.048Z,92.16
2022-11-24T15:11:07.466Z,92.78
2022-11-24T15:14:36.904Z,93.12
2022-11-24T15:17:48.599Z,93.43
2022-11-24T15:20:51.519Z,93.89
2022-11-24T15:24:06.632Z,93.24
2022-11-24T15:27:09.195Z,93.53
2022-11-24T15:30:15.995Z,92.90
2022-11-24T15:33:20.020Z,91.65
2022-11-24T15:36:27.232Z,92.69
2022-11-24T15:39:34.823Z,92.53
2022-11-24T15:42:47.133Z,92.51
2022-11-24T15:45:53.578Z,93.42
2022-11-24T15:48:59.083Z,92.14
2022-11-24T15:52:04.011Z,92.73
2022-11-24T15:55:27.241Z,93.85
2022-11-24T15:58:32.652Z,93.44
2022-11-24T16:01:37.641Z,93.13
2022-11-24T16:04:41.747Z,94.09
2022-11-24T16:07:49.563Z,94.43
2022-11-24T16:10:57.183Z,94.87
2022-11-24T16:14:00.575Z,95.30
2022-11-24T16:17:04.162Z,95.06
2022-11-24T16:20:10.843Z,96.25
2022-11-24T16:23:15.138Z,96.81
2022-11-24T16:26:18.307Z,97.27
2022-11-24T16:29:24.369Z,96.60
2022-11-24T16:32:28.016Z,96.64
2022-11-24T16:35:33.363Z,97.05
2022-11-24T16:38:35.899Z,97.26
2022-11-24T16:41:38.919Z,97.32
2022-11-24T16:44:42.181Z,97.41
2022-11-24T16:47:45.082Z,98.37
2022-11-24T16:50:53.995Z,98.38
2022-11-24T16:53:59.210Z,98.83
2022-11-24T16:57:14.914Z,98.99
2022-11-24T17:00:35.157Z,99.40
2022-11-24T17:03:38.736Z,100.00
2022-11-24T17:06:44.168Z,100.00
2022-11-24T17:09:46.674Z,100.00
2022-11-24T17:12:51.961Z,100.00
2022-11-24T17:15:54.754Z,100.00
2022-11-24T17:18:58.983Z,100.00
2022-11-24T17:22:02.616Z,100.00
2022-11-24T17:25:06.598Z,99.62
2022-11-24T17:28:09.418Z,99.12
2022-11-24T17:31:17.881Z,99.90
2022-11-24T17:34:20.806Z,100.00
2022-11-24T17:37:24.079Z,100.00
2022-11-24T17:40:29.684Z,99.60
2022-11-24T17:43:35.534Z,98.58
2022-11-24T17:46:39.029Z,99.10
2022-11-24T17:49:42.114Z,99.99
2022-11-24T17:52:48.786Z,100.00
2022-11-24T17:55:56.967Z,100.00
2022-11-24T17:59:03.038Z,100.00
2022-11-24T18:02:10.186Z,100.00
2022-11-24T18:05:16.107Z,100.00
2022-11-24T18:08:22.142Z,100.00
2022-11-24T18:11:31.397Z,100.00
2022-11-24T18:14:55.119Z,100.00
2022-11-24T18:17:58.548Z,100.00
2022-11-24T18:21:02.405Z,100.00
2022-11-24T18:24:12.499Z,100.00
2022-11-24T18:27:17.863Z,100.00
2022-11-24T18:30:21.218Z,100.00
2022-11-24T18:33:23.625Z,100.00
2022-11-24T18:36:30.510Z,100.00
2022-11-24T18:39:34.373Z,100.00
2022-11-24T18:42:37.563Z,100.00
2022-11-24T18:45:42.235Z,100.00
2022-11-24T18:48:47.997Z,100.00
2022-11-24T18:51:56.438Z,100.00
2022-11-24T18:55:04.238Z,100.00
2022-11-24T18:58:06.647Z,100.00
2022-11-24T19:05:06.799Z,100.00
2022-11-24T19:08:12.447Z,100.00
2022-11-24T19:11:39.450Z,100.00
2022-11-24T19:15:14.899Z,100.00
2022-11-24T19:18:21.163Z,100.00
2022-11-24T19:21:25.072Z,100.00
2022-11-24T19:24:28.605Z,100.00
2022-11-24T19:27:51.474Z,100.00
2022-11-24T19:30:53.890Z,100.00
2022-11-24T19:33:58.631Z,100.00
2022-11-24T19:37:02.201Z,100.00
2022-11-24T19:40:06.229Z,100.00
2022-11-24T19:43:08.634Z,100.00
2022-11-24T19:46:14.492Z,100.00
2022-11-24T19:49:36.919Z,100.00
2022-11-24T19:52:46.418Z,100.00
2022-11-24T19:55:50.826Z,100.00
2022-11-24T19:58:55.451Z,100.00
2022-11-24T20:01:58.502Z,100.00
2022-11-24T20:05:04.276Z,100.00
2022-11-24T20:08:06.748Z,100.00
2022-11-24T20:11:18.542Z,100.00
2022-11-24T20:14:23.322Z,100.00
2022-11-24T20:17:30.032Z,100.00
2022-11-24T20:20:33.259Z,100.00
2022-11-24T20:24:25.088Z,100.00
2022-11-24T20:27:32.107Z,100.00
2022-11-24T20:30:36.116Z,100.00
2022-11-24T20:33:48.600Z,100.00
2022-11-24T20:37:13.675Z,100.00
2022-11-24T20:40:20.718Z,100.00
2022-11-24T20:43:24.382Z,100.00
2022-11-24T20:46:30.075Z,100.00
2022-11-24T20:49:33.099Z,100.00
2022-11-24T20:52:35.911Z,100.00
2022-11-24T20:55:43.452Z,100.00
2022-11-24T20:58:50.702Z,100.00
2022-11-24T21:02:00.865Z,100.00
2022-11-24T21:05:24.464Z,100.00
2022-11-24T21:08:28.401Z,100.00
2022-11-24T21:11:34.406Z,100.00
2022-11-24T21:14:38.925Z,100.00
2022-11-24T21:17:46.037Z,100.00
2022-11-24T21:21:28.591Z,100.00
2022-11-24T21:24:31.469Z,100.00
2022-11-24T21:27:36.172Z,100.00
2022-11-24T21:30:56.316Z,100.00
2022-11-24T21:34:19.201Z,100.00
2022-11-24T21:38:04.772Z,100.00
2022-11-24T21:41:12.041Z,100.00
2022-11-24T21:44:35.680Z,100.00
2022-11-24T21:48:45.976Z,100.00
2022-11-24T21:52:12.395Z,100.00
2022-11-24T21:55:17.708Z,100.00
2022-11-24T21:58:51.838Z,100.00
2022-11-24T22:01:55.249Z,100.00
2022-11-24T22:05:18.685Z,100.00
2022-11-24T22:08:41.057Z,100.00
2022-11-24T22:11:45.346Z,100.00
2022-11-24T22:15:08.423Z,100.00
2022-11-24T22:18:13.918Z,100.00
2022-11-24T22:21:19.402Z,100.00
2022-11-24T22:25:02.685Z,100.00
2022-11-24T22:28:38.689Z,100.00
2022-11-24T22:32:25.756Z,100.00
2022-11-24T22:36:04.096Z,100.00
2022-11-24T22:39:52.110Z,100.00
2022-11-24T22:43:23.186Z,100.00
2022-11-24T22:46:59.994Z,100.00
2022-11-24T22:50:39.669Z,100.00
2022-11-24T22:54:17.982Z,100.00
2022-11-24T22:57:20.910Z,100.00
2022-11-24T23:05:07.194Z,100.00
2022-11-24T23:08:53.099Z,100.00
2022-11-24T23:15:33.814Z,100.00
2022-11-24T23:18:53.522Z,100.00
2022-11-24T23:22:20.888Z,100.00
2022-11-24T23:25:37.895Z,100.00
2022-11-24T23:29:09.354Z,100.00
2022-11-24T23:32:29.371Z,100.00
2022-11-24T23:36:15.779Z,100.00
2022-11-24T23:39:31.073Z,100.00
2022-11-24T23:43:02.021Z,100.00
2022-11-24T23:46:24.184Z,100.00
2022-11-24T23:50:15.655Z,100.00
2022-11-24T23:53:58.864Z,100.00
2022-11-24T23:57:22.470Z,100.00
